MASCOMA R @ MASCOMA: From 09/04/2018 16:00 to 09/19/2018 03:00

Date STAGE [FT] FLOW [CFS] LAKE ELEVATION [FT] PRECIPITATION INCREMENT [IN] AIR TEMPERATURE [F]
09/18/2018 21:00 2.59 109.2 749.85 0.00 71.5
09/18/2018 20:00 2.60 111.0 749.85 0.00 73.3
09/18/2018 19:00 2.61 112.9 749.86 0.00 78.8
09/18/2018 18:00 2.60 111.0 749.87 0.00 82.5
09/18/2018 17:00 2.61 112.9 749.88 0.00 84.0
09/18/2018 16:00 2.62 114.8 749.88 0.00 79.1
09/18/2018 15:00 2.63 116.8 749.89 0.00 81.1
09/18/2018 14:00 2.64 118.8 749.89 0.00 79.2
09/18/2018 13:00 2.65 120.8 749.90 0.00 76.7
09/18/2018 12:00 2.67 124.8 749.90 0.00 71.4
09/18/2018 11:00 2.67 124.8 749.91 0.00 69.7
09/18/2018 10:00 2.20 56.4 749.90 0.12 68.0
09/18/2018 09:00 2.19 55.3 749.90 0.05 67.6
09/18/2018 08:00 2.17 53.2 749.89 0.08 67.4
09/18/2018 07:00 2.16 52.2 749.88 0.27 67.1
09/18/2018 06:00 2.14 50.1 749.87 0.21 67.1
09/18/2018 05:00 2.13 49.1 749.86 0.01 68.1
09/18/2018 04:00 2.13 49.1 749.86 0.00 68.4
09/18/2018 03:00 2.14 50.1 749.86 0.00 68.6
09/18/2018 02:00 2.13 49.1 749.86 0.00 68.5
09/18/2018 01:00 2.13 49.1 749.86 0.00 68.3
09/18/2018 00:00 2.13 49.1 749.86 0.00 69.2
09/17/2018 23:00 2.13 49.1 749.86 0.00 69.2
09/17/2018 22:00 2.13 49.1 749.86 0.00 69.5
09/17/2018 21:00 2.13 49.1 749.87 0.00 69.2
09/17/2018 20:00 2.13 49.1 749.87 0.00 73.0
09/17/2018 19:00 2.13 49.1 749.87 0.00 76.4
09/17/2018 18:00 2.11 47.1 749.87 0.00 79.6
09/17/2018 17:00 2.10 46.1 749.87 0.00 80.2
09/17/2018 16:00 2.12 48.1 749.87 0.00 82.8
09/17/2018 15:00 2.13 49.1 749.87 0.00 84.7
09/17/2018 14:00 2.14 50.1 749.87 0.00 81.3
09/17/2018 13:00 2.15 51.1 749.87 0.00 82.3
09/17/2018 12:00 2.16 52.2 749.87 0.00 74.4
09/17/2018 11:00 2.17 53.2 749.88 0.00 70.5
09/17/2018 10:00 2.16 52.2 749.87 0.00 67.9
09/17/2018 09:00 2.17 53.2 749.87 0.00 66.0
09/17/2018 08:00 2.17 53.2 749.88 0.00 65.4
09/17/2018 07:00 2.17 53.2 749.88 0.00 65.5
09/17/2018 06:00 2.17 53.2 749.88 0.00 65.9
09/17/2018 05:00 2.17 53.2 749.88 0.00 66.2
09/17/2018 04:00 2.17 53.2 749.88 0.00 66.4
09/17/2018 03:00 2.17 53.2 749.88 0.00 66.5
09/17/2018 02:00 2.16 52.2 749.88 0.00 66.9
09/17/2018 01:00 2.17 53.2 749.88 0.00 66.9
09/17/2018 00:00 2.16 52.2 749.88 0.00 67.4
09/16/2018 23:00 2.17 53.2 749.88 0.00 67.7
09/16/2018 22:00 2.17 53.2 749.88 0.00 68.3
09/16/2018 21:00 2.17 53.2 749.88 0.00 70.1
09/16/2018 20:00 2.17 53.2 749.88 0.00 73.8
09/16/2018 19:00 2.15 51.1 749.88 0.00 79.8
09/16/2018 18:00 2.12 48.1 749.88 0.00 86.2
09/16/2018 17:00 2.11 47.1 749.88 0.00 85.5
09/16/2018 16:00 2.14 50.1 749.88 0.00 85.5
09/16/2018 15:00 2.16 52.2 749.88 0.00 85.8
09/16/2018 14:00 2.18 54.3 749.88 0.00 84.0
09/16/2018 13:00 2.18 54.3 749.88 0.00 80.3
09/16/2018 12:00 2.19 55.3 749.88 0.00 71.4
09/16/2018 11:00 2.20 56.4 749.89 0.00 67.0
09/16/2018 10:00 2.19 55.3 749.88 0.00 69.2
09/16/2018 09:00 2.19 55.3 749.88 0.00 63.7
09/16/2018 08:00 2.19 55.3 749.88 0.00 62.9
09/16/2018 07:00 2.20 56.4 749.89 0.00 62.6
09/16/2018 06:00 2.21 57.5 749.89 0.00 62.9
09/16/2018 05:00 2.20 56.4 749.89 0.00 62.6
09/16/2018 04:00 2.19 55.3 749.89 0.00 63.8
09/16/2018 03:00 2.19 55.3 749.89 0.00 64.9
09/16/2018 02:00 2.19 55.3 749.89 0.00 65.6
09/16/2018 01:00 2.19 55.3 749.89 0.00 64.6
09/16/2018 00:00 2.19 55.3 749.89 0.00 64.6
09/15/2018 23:00 2.19 55.3 749.89 0.00 65.3
09/15/2018 22:00 2.19 55.3 749.89 0.00 66.5
09/15/2018 21:00 2.19 55.3 749.89 0.00 68.2
09/15/2018 20:00 2.18 54.3 749.89 0.00 71.5
09/15/2018 19:00 2.17 53.2 749.89 0.00 78.3
09/15/2018 18:00 2.13 49.1 749.89 0.00 82.6
09/15/2018 17:00 2.12 48.1 749.89 0.00 81.5
09/15/2018 16:00 2.14 50.1 749.89 0.00 81.3
09/15/2018 15:00 2.17 53.2 749.89 0.00 78.2
09/15/2018 14:00 2.19 55.3 749.89 0.00 75.0
09/15/2018 13:00 2.20 56.4 749.89 0.00 69.8
09/15/2018 12:00 2.20 56.4 749.89 0.00 66.4
09/15/2018 11:00 2.20 56.4 749.89 0.00 65.8
09/15/2018 10:00 2.20 56.4 749.89 0.00 61.7
09/15/2018 09:00 2.20 56.4 749.89 0.00 60.7
09/15/2018 08:00 2.20 56.4 749.89 0.00 60.2
09/15/2018 07:00 2.20 56.4 749.89 0.00 59.6
09/15/2018 06:00 2.20 56.4 749.89 0.00 60.8
09/15/2018 05:00 2.20 56.4 749.89 0.00 60.4
09/15/2018 04:00 2.20 56.4 749.89 0.00 60.4
09/15/2018 03:00 2.20 56.4 749.89 0.00 59.8
09/15/2018 02:00 2.20 56.4 749.90 0.00 60.1
09/15/2018 01:00 2.20 56.4 749.89 0.00 60.1
09/15/2018 00:00 2.20 56.4 749.90 0.00 60.5
09/14/2018 23:00 2.20 56.4 749.90 0.00 61.4
09/14/2018 22:00 2.20 56.4 749.90 0.00 62.0
09/14/2018 21:00 2.19 55.3 749.90 0.00 63.5
09/14/2018 20:00 2.19 55.3 749.90 0.00 67.5
09/14/2018 19:00 2.18 54.3 749.90 0.00 73.8
09/14/2018 18:00 2.15 51.1 749.90 0.00 76.2
09/14/2018 17:00 2.16 52.2 749.90 0.00 76.3
09/14/2018 16:00 2.17 53.2 749.90 0.00 77.0
09/14/2018 15:00 2.19 55.3 749.90 0.00 76.4
09/14/2018 14:00 2.21 57.5 749.89 0.00 75.1
09/14/2018 13:00 2.22 58.6 749.90 0.00 70.3
09/14/2018 12:00 2.22 58.6 749.90 0.00 66.9
09/14/2018 11:00 2.22 58.6 749.90 0.00 63.7
09/14/2018 10:00 2.22 58.6 749.90 0.00 63.4
09/14/2018 09:00 2.22 58.6 749.90 0.00 63.5
09/14/2018 08:00 2.22 58.6 749.90 0.00 62.8
09/14/2018 07:00 2.22 58.6 749.90 0.00 62.2
09/14/2018 06:00 2.22 58.6 749.90 0.00 63.0
09/14/2018 05:00 2.22 58.6 749.90 0.00 63.3
09/14/2018 04:00 2.22 58.6 749.90 0.00 63.8
09/14/2018 03:00 2.22 58.6 749.90 0.00 63.4
09/14/2018 02:00 2.22 58.6 749.90 0.00 63.6
09/14/2018 01:00 2.22 58.6 749.90 0.00 61.5
09/14/2018 00:00 2.22 58.6 749.90 0.00 62.0
09/13/2018 23:00 2.23 59.7 749.90 0.00 62.9
09/13/2018 22:00 2.22 58.6 749.90 0.00 64.4
09/13/2018 21:00 2.22 58.6 749.90 0.00 66.7
09/13/2018 20:00 2.21 57.5 749.90 0.00 70.4
09/13/2018 19:00 2.19 55.3 749.90 0.00 76.9
09/13/2018 18:00 2.16 52.2 749.90 0.00 80.5
09/13/2018 17:00 2.17 53.2 749.90 0.00 80.9
09/13/2018 16:00 2.17 53.2 749.90 0.00 78.8
09/13/2018 15:00 2.21 57.5 749.90 0.00 77.8
09/13/2018 14:00 2.21 57.5 749.90 0.00 77.7
09/13/2018 13:00 2.21 57.5 749.90 0.00 77.8
09/13/2018 12:00 2.21 57.5 749.90 0.00 74.3
09/13/2018 11:00 2.22 58.6 749.90 0.00 69.5
09/13/2018 10:00 2.22 58.6 749.90 0.00 67.1
09/13/2018 09:00 2.21 57.5 749.90 0.00 64.9
09/13/2018 08:00 2.21 57.5 749.90 0.00 63.8
09/13/2018 07:00 2.21 57.5 749.90 0.00 63.6
09/13/2018 06:00 2.21 57.5 749.90 0.00 63.4
09/13/2018 05:00 2.21 57.5 749.90 0.00 63.6
09/13/2018 04:00 2.21 57.5 749.89 0.00 63.7
09/13/2018 03:00 2.21 57.5 749.89 0.00 63.8
09/13/2018 02:00 2.21 57.5 749.89 0.00 64.1
09/13/2018 01:00 2.20 56.4 749.89 0.00 64.3
09/13/2018 00:00 2.20 56.4 749.89 0.00 64.4
09/12/2018 23:00 2.21 57.5 749.89 0.00 63.9
09/12/2018 22:00 2.20 56.4 749.89 0.00 64.5
09/12/2018 21:00 2.20 56.4 749.89 0.00 65.2
09/12/2018 20:00 2.20 56.4 749.89 0.00 65.4
09/12/2018 19:00 2.20 56.4 749.89 0.00 66.3
09/12/2018 18:00 2.20 56.4 749.89 0.00 67.6
09/12/2018 17:00 2.20 56.4 749.89 0.00 67.6
09/12/2018 16:00 2.19 55.3 749.89 0.00 68.1
09/12/2018 15:00 2.19 55.3 749.88 0.00 67.2
09/12/2018 14:00 2.19 55.3 749.88 0.00 66.0
09/12/2018 13:00 2.19 55.3 749.88 0.00 66.2
09/12/2018 12:00 2.18 54.3 749.88 0.00 66.0
09/12/2018 11:00 2.18 54.3 749.88 0.00 65.1
09/12/2018 10:00 2.18 54.3 749.88 0.00 64.1
09/12/2018 09:00 2.17 53.2 749.88 0.00 63.1
09/12/2018 08:00 2.17 53.2 749.87 0.00 62.6
09/12/2018 07:00 2.17 53.2 749.87 0.00 62.6
09/12/2018 06:00 2.17 53.2 749.87 0.00 62.4
09/12/2018 05:00 2.17 53.2 749.87 0.00 62.4
09/12/2018 04:00 2.16 52.2 749.87 0.00 62.5
09/12/2018 03:00 2.17 53.2 749.87 0.00 63.2
09/12/2018 02:00 2.16 52.2 749.86 0.00 63.6
09/12/2018 01:00 2.15 51.1 749.86 0.00 63.7
09/12/2018 00:00 2.16 52.2 749.86 0.00 64.1
09/11/2018 23:00 2.16 52.2 749.86 0.00 64.4
09/11/2018 22:00 2.16 52.2 749.86 0.00 65.0
09/11/2018 21:00 2.16 52.2 749.86 0.00 65.5
09/11/2018 20:00 2.16 52.2 749.87 0.00 66.5
09/11/2018 19:00 2.16 52.2 749.86 0.00 67.5
09/11/2018 18:00 2.15 51.1 749.86 0.00 67.3
09/11/2018 17:00 2.16 52.2 749.87 0.00 66.4
09/11/2018 16:00 2.15 51.1 749.86 0.00 66.0
09/11/2018 15:00 2.15 51.1 749.86 0.01 64.5
09/11/2018 14:00 2.16 52.2 749.86 0.00 63.3
09/11/2018 13:00 2.16 52.2 749.86 0.01 62.7
09/11/2018 12:00 2.16 52.2 749.86 0.00 62.0
09/11/2018 11:00 2.16 52.2 749.86 0.01 61.0
09/11/2018 10:00 2.15 51.1 749.86 0.11 59.2
09/11/2018 09:00 2.15 51.1 749.86 0.00 59.5
09/11/2018 08:00 2.15 51.1 749.86 0.00 59.1
09/11/2018 07:00 2.16 52.2 749.86 0.01 59.0
09/11/2018 06:00 2.16 52.2 749.86 0.02 58.6
09/11/2018 05:00 2.14 50.1 749.86 0.01 58.0
09/11/2018 04:00 2.15 51.1 749.86 0.01 57.7
09/11/2018 03:00 2.14 50.1 749.86 0.00 57.5
09/11/2018 02:00 2.17 53.2 749.86 0.04 58.1
09/11/2018 01:00 2.14 50.1 749.85 0.00 58.0
09/11/2018 00:00 2.15 51.1 749.85 0.00 57.5
09/10/2018 23:00 2.12 48.1 749.85 0.02 56.4
09/10/2018 22:00 2.13 49.1 749.85 0.04 55.0
09/10/2018 21:00 2.17 53.2 749.86 0.06 56.4
09/10/2018 20:00 2.16 52.2 749.85 0.06 56.6
09/10/2018 19:00 2.13 49.1 749.84 0.02 56.9
09/10/2018 18:00 2.12 48.1 749.83 0.02 56.9
09/10/2018 17:00 2.12 48.1 749.83 0.02 56.7
09/10/2018 16:00 2.14 50.1 749.84 0.00 58.1
09/10/2018 15:00 2.15 51.1 749.84 0.00 59.3
09/10/2018 14:00 2.17 53.2 749.84 0.00 59.5
09/10/2018 13:00 2.11 47.1 749.83 0.00 58.3
09/10/2018 12:00 2.11 47.1 749.83 0.00 56.1
09/10/2018 11:00 2.12 48.1 749.83 0.00 54.9
09/10/2018 10:00 2.12 48.1 749.83 0.00 52.5
09/10/2018 09:00 2.12 48.1 749.83 0.00 50.1
09/10/2018 08:00 2.11 47.1 749.82 0.00 47.9
09/10/2018 07:00 2.11 47.1 749.82 0.00 46.8
09/10/2018 06:00 2.11 47.1 749.82 0.00 46.8
09/10/2018 05:00 2.11 47.1 749.82 0.00 47.7
09/10/2018 04:00 2.11 47.1 749.82 0.00 48.3
09/10/2018 03:00 2.11 47.1 749.82 0.00 49.5
09/10/2018 02:00 2.11 47.1 749.82 0.00 50.0
09/10/2018 01:00 2.10 46.1 749.82 0.00 48.1
09/10/2018 00:00 2.10 46.1 749.82 0.00 50.0
09/09/2018 23:00 2.10 46.1 749.82 0.00 50.3
09/09/2018 22:00 2.10 46.1 749.82 0.00 50.9
09/09/2018 21:00 2.10 46.1 749.82 0.00 52.0
09/09/2018 20:00 2.10 46.1 749.83 0.00 55.3
09/09/2018 19:00 2.09 45.1 749.83 0.00 60.5
09/09/2018 18:00 2.09 45.1 749.83 0.00 62.4
09/09/2018 17:00 2.08 44.2 749.83 0.00 63.5
09/09/2018 16:00 2.08 44.2 749.83 0.00 64.0
09/09/2018 15:00 2.09 45.1 749.83 0.00 61.1
09/09/2018 14:00 2.10 46.1 749.83 0.00 59.7
09/09/2018 13:00 2.11 47.1 749.83 0.00 56.6
09/09/2018 12:00 2.11 47.1 749.83 0.00 57.1
09/09/2018 11:00 2.11 47.1 749.83 0.00 54.5
09/09/2018 10:00 2.11 47.1 749.83 0.00 51.5
09/09/2018 09:00 2.11 47.1 749.84 0.00 45.6
09/09/2018 08:00 2.12 48.1 749.84 0.00 44.3
09/09/2018 07:00 2.11 47.1 749.84 0.00 43.4
09/09/2018 06:00 2.12 48.1 749.84 0.00 44.4
09/09/2018 05:00 2.12 48.1 749.84 0.00 45.2
09/09/2018 04:00 2.12 48.1 749.84 0.00 45.5
09/09/2018 03:00 2.12 48.1 749.84 0.00 46.3
09/09/2018 02:00 2.11 47.1 749.84 0.00 47.6
09/09/2018 01:00 2.11 47.1 749.84 0.00 48.5
09/09/2018 00:00 2.11 47.2 749.84 0.00 48.7
09/08/2018 23:00 2.11 47.2 749.84 0.00 48.9
09/08/2018 22:00 2.11 47.3 749.84 0.00 49.1
09/08/2018 21:00 2.11 47.4 749.84 0.00 49.2
09/08/2018 20:00 2.11 47.5 749.85 0.00 49.4
09/08/2018 19:00 2.11 47.5 749.85 0.00 49.6
09/08/2018 18:00 2.12 47.6 749.85 0.00 49.8
09/08/2018 17:00 2.12 47.7 749.85 0.00 50.0
09/08/2018 16:00 2.12 47.8 749.85 0.00 50.2
09/08/2018 15:00 2.12 47.8 749.85 0.00 50.4
09/08/2018 14:00 2.12 47.9 749.85 0.00 50.5
09/08/2018 13:00 2.12 48.0 749.85 0.00 50.7
09/08/2018 12:00 2.12 48.1 749.85 0.00 50.9
09/08/2018 11:00 2.12 48.1 749.85 0.00 51.1
09/08/2018 10:00 2.12 48.2 749.86 0.00 51.3
09/08/2018 09:00 2.12 48.3 749.86 0.00 51.5
09/08/2018 08:00 2.12 48.4 749.86 0.00 51.6
09/08/2018 07:00 2.12 48.4 749.86 0.00 51.8
09/08/2018 06:00 2.12 48.5 749.86 0.00 52.0
09/08/2018 05:00 2.13 48.6 749.86 0.00 52.2
09/08/2018 04:00 2.13 48.7 749.86 0.00 52.4
09/08/2018 03:00 2.13 48.7 749.86 0.00 52.6
09/08/2018 02:00 2.13 48.8 749.86 0.00 52.8
09/08/2018 01:00 2.13 48.9 749.86 0.00 52.9
09/08/2018 00:00 2.13 49.0 749.87 0.00 53.1
09/07/2018 23:00 2.13 49.0 749.87 0.00 53.3
09/07/2018 22:00 2.13 49.1 749.87 0.00 53.5
09/07/2018 21:00 2.13 49.2 749.87 0.00 53.7
09/07/2018 20:00 2.13 49.3 749.87 0.00 53.9
09/07/2018 19:00 2.13 49.3 749.87 0.00 54.0
09/07/2018 18:00 2.13 49.4 749.87 0.00 54.2
09/07/2018 17:00 2.13 49.5 749.87 0.00 54.4
09/07/2018 16:00 2.13 49.6 749.87 0.00 54.6
09/07/2018 15:00 2.14 49.6 749.87 0.00 54.8
09/07/2018 14:00 2.14 49.7 749.88 0.00 55.0
09/07/2018 13:00 2.14 49.8 749.88 0.00 55.2
09/07/2018 12:00 2.14 49.9 749.88 0.00 55.3
09/07/2018 11:00 2.14 49.9 749.88 0.00 55.5
09/07/2018 10:00 2.14 50.0 749.88 0.00 55.7
09/07/2018 09:00 2.14 50.1 749.88 0.00 55.9
09/07/2018 08:00 2.16 52.2 749.88 0.00 54.9
09/07/2018 07:00 2.14 50.1 749.88 0.00 55.5
09/07/2018 06:00 2.14 50.1 749.88 0.00 55.6
09/07/2018 05:00 2.14 50.1 749.88 0.00 56.2
09/07/2018 04:00 2.14 50.1 749.88 0.00 57.0
09/07/2018 03:00 2.13 49.1 749.88 0.00 58.5
09/07/2018 02:00 2.13 49.1 749.88 0.00 61.2
09/07/2018 01:00 2.14 50.1 749.88 0.00 62.4
09/07/2018 00:00 2.14 50.1 749.89 0.00 64.1
09/06/2018 23:00 2.13 49.1 749.89 0.00 65.9
09/06/2018 22:00 2.14 50.1 749.89 0.00 67.1
09/06/2018 21:00 2.14 50.1 749.89 0.00 68.1
09/06/2018 20:00 2.13 49.1 749.89 0.00 71.6
09/06/2018 19:00 2.12 48.1 749.89 0.00 74.7
09/06/2018 18:00 2.10 46.1 749.89 0.00 77.4
09/06/2018 17:00 2.09 45.1 749.89 0.00 78.6
09/06/2018 16:00 2.11 47.1 749.89 0.00 77.7
09/06/2018 15:00 2.12 48.1 749.88 0.01 73.2
09/06/2018 14:00 2.15 51.1 749.88 0.15 72.7
09/06/2018 13:00 2.08 44.2 749.86 0.00 83.0
09/06/2018 12:00 2.09 45.1 749.87 0.00 85.8
09/06/2018 11:00 2.09 45.1 749.87 0.00 87.3
09/06/2018 10:00 2.10 46.1 749.87 0.00 85.8
09/06/2018 09:00 2.10 46.1 749.87 0.00 84.8
09/06/2018 08:00 2.10 46.1 749.87 0.00 76.5
09/06/2018 07:00 2.10 46.1 749.87 0.00 73.4
09/06/2018 06:00 2.11 47.1 749.87 0.00 73.7
09/06/2018 05:00 2.10 46.1 749.87 0.00 74.0
09/06/2018 04:00 2.10 46.1 749.87 0.00 74.5
09/06/2018 03:00 2.10 46.1 749.87 0.00 75.0
09/06/2018 02:00 2.09 45.1 749.87 0.00 75.0
09/06/2018 01:00 2.09 45.1 749.87 0.00 74.8
09/06/2018 00:00 2.10 46.1 749.87 0.00 74.0
09/05/2018 23:00 2.10 46.1 749.87 0.00 75.3
09/05/2018 22:00 2.09 45.1 749.87 0.00 74.5
09/05/2018 21:00 2.09 45.1 749.87 0.00 75.9
09/05/2018 20:00 2.08 44.2 749.87 0.00 80.2
09/05/2018 19:00 2.07 43.2 749.87 0.00 87.0
09/05/2018 18:00 2.04 40.5 749.87 0.00 87.0
09/05/2018 17:00 2.04 40.5 749.87 0.00 87.8
09/05/2018 16:00 2.05 41.4 749.87 0.00 89.2
09/05/2018 15:00 2.08 44.2 749.87 0.00 87.4
09/05/2018 14:00 2.09 45.1 749.87 0.00 85.9
09/05/2018 13:00 2.10 45.9 749.87 0.00 82.1
09/05/2018 12:00 2.11 46.7 749.87 0.00 78.3
09/05/2018 11:00 2.11 47.5 749.88 0.00 74.5
09/05/2018 10:00 2.12 48.3 749.88 0.00 70.7
09/05/2018 09:00 2.13 49.1 749.88 0.00 66.9
09/05/2018 08:00 2.13 49.1 749.88 0.00 62.3
09/05/2018 07:00 2.13 49.1 749.88 0.00 62.7
09/05/2018 06:00 2.13 49.1 749.88 0.00 63.0
09/05/2018 05:00 2.13 49.1 749.88 0.00 63.3
09/05/2018 04:00 2.13 49.1 749.88 0.00 63.6
09/05/2018 03:00 2.13 49.1 749.88 0.00 63.9
09/05/2018 02:00 2.12 48.1 749.88 0.00 64.8
09/05/2018 01:00 2.12 48.1 749.88 0.00 64.3
09/05/2018 00:00 2.13 49.1 749.88 0.00 65.2
09/04/2018 23:00 2.12 48.1 749.88 0.00 66.3
09/04/2018 22:00 2.12 48.1 749.88 0.00 68.2
09/04/2018 21:00 -- -- -- -- --
09/04/2018 20:00 -- -- -- -- --
09/04/2018 19:00 -- -- -- -- --
09/04/2018 18:00 -- -- -- -- --
09/04/2018 17:00 -- -- -- -- --
09/04/2018 16:00 -- -- -- -- --